地図

経路データ

SID SEASON NUMBER BASIN SUBBASIN NAME ISO_TIME NATURE LAT LON WMO_WIND WMO_PRES WMO_AGENCY TRACK_TYPE DIST2LAND LANDFALL IFLAG USA_AGENCY USA_ATCF_ID USA_LAT USA_LON USA_RECORD USA_STATUS USA_WIND USA_PRES USA_SSHS USA_R34_NE USA_R34_SE USA_R34_SW USA_R34_NW USA_R50_NE USA_R50_SE USA_R50_SW USA_R50_NW USA_R64_NE USA_R64_SE USA_R64_SW USA_R64_NW USA_POCI USA_ROCI USA_RMW USA_EYE TOKYO_LAT TOKYO_LON TOKYO_GRADE TOKYO_WIND TOKYO_PRES TOKYO_R50_DIR TOKYO_R50_LONG TOKYO_R50_SHORT TOKYO_R30_DIR TOKYO_R30_LONG TOKYO_R30_SHORT TOKYO_LAND CMA_LAT CMA_LON CMA_CAT CMA_WIND CMA_PRES HKO_LAT HKO_LON HKO_CAT HKO_WIND HKO_PRES NEWDELHI_LAT NEWDELHI_LON NEWDELHI_GRADE NEWDELHI_WIND NEWDELHI_PRES NEWDELHI_CI NEWDELHI_DP NEWDELHI_POCI REUNION_LAT REUNION_LON REUNION_TYPE REUNION_WIND REUNION_PRES REUNION_TNUM REUNION_CI REUNION_RMW REUNION_R34_NE REUNION_R34_SE REUNION_R34_SW REUNION_R34_NW REUNION_R50_NE REUNION_R50_SE REUNION_R50_SW REUNION_R50_NW REUNION_R64_NE REUNION_R64_SE REUNION_R64_SW REUNION_R64_NW BOM_LAT BOM_LON BOM_TYPE BOM_WIND BOM_PRES BOM_TNUM BOM_CI BOM_RMW BOM_R34_NE BOM_R34_SE BOM_R34_SW BOM_R34_NW BOM_R50_NE BOM_R50_SE BOM_R50_SW BOM_R50_NW BOM_R64_NE BOM_R64_SE BOM_R64_SW BOM_R64_NW BOM_ROCI BOM_POCI BOM_EYE BOM_POS_METHOD BOM_PRES_METHOD NADI_LAT NADI_LON NADI_CAT NADI_WIND NADI_PRES WELLINGTON_LAT WELLINGTON_LON WELLINGTON_WIND WELLINGTON_PRES DS824_LAT DS824_LON DS824_STAGE DS824_WIND DS824_PRES TD9636_LAT TD9636_LON TD9636_STAGE TD9636_WIND TD9636_PRES TD9635_LAT TD9635_LON TD9635_WIND TD9635_PRES TD9635_ROCI NEUMANN_LAT NEUMANN_LON NEUMANN_CLASS NEUMANN_WIND NEUMANN_PRES MLC_LAT MLC_LON MLC_CLASS MLC_WIND MLC_PRES USA_GUST BOM_GUST BOM_GUST_PER REUNION_GUST REUNION_GUST_PER USA_SEAHGT USA_SEARAD_NE USA_SEARAD_SE USA_SEARAD_SW USA_SEARAD_NW STORM_SPEED STORM_DIR
1925344S14065 1926 61 SI MM NOT_NAMED 1925-12-10 00:00:00 TS -14.0000 65.2000 main 1049 994 _________O____ -1 -14.0000 65.2000 TC 25 11 242
1925344S14065 1926 61 SI MM NOT_NAMED 1925-12-10 03:00:00 TS -14.2502 64.7052 main 986 931 _________P____ -1 -14.2502 64.7052 TC 25 11 243
1925344S14065 1926 61 SI MM NOT_NAMED 1925-12-10 06:00:00 TS -14.5000 64.2000 main 931 877 _________O____ -1 -14.5000 64.2000 TC 25 11 243
1925344S14065 1926 61 SI MM NOT_NAMED 1925-12-10 09:00:00 TS -14.7500 63.6849 main 877 815 _________P____ -1 -14.7500 63.6849 TC 25 11 243
1925344S14065 1926 61 SI MM NOT_NAMED 1925-12-10 12:00:00 TS -15.0000 63.2000 main 815 769 _________O____ -1 -15.0000 63.2000 TC 25 10 240
1925344S14065 1926 61 SI MM NOT_NAMED 1925-12-10 15:00:00 TS -15.2498 62.7849 main 769 715 _________P____ -1 -15.2498 62.7849 TC 25 9 237
1925344S14065 1926 61 SI MM NOT_NAMED 1925-12-10 18:00:00 TS -15.5000 62.4000 main 715 670 _________O____ -1 -15.5000 62.4000 TC 25 9 237
1925344S14065 1926 61 SI MM NOT_NAMED 1925-12-10 21:00:00 TS -15.7425 61.9849 main 670 616 _________P____ -1 -15.7425 61.9849 TC 25 9 237
1925344S14065 1926 61 SI MM NOT_NAMED 1925-12-11 00:00:00 TS -16.0000 61.6000 main 616 570 _________O____ -1 -16.0000 61.6000 TC 25 9 231
1925344S14065 1926 61 SI MM NOT_NAMED 1925-12-11 03:00:00 TS -16.2924 61.2849 main 570 524 _________P____ -1 -16.2924 61.2849 TC 25 8 224
1925344S14065 1926 61 SI MM NOT_NAMED 1925-12-11 06:00:00 TS -16.6000 61.0000 main 524 477 _________O____ -1 -16.6000 61.0000 TC 25 8 223
1925344S14065 1926 61 SI MM NOT_NAMED 1925-12-11 09:00:00 TS -16.9000 60.6850 main 477 431 _________P____ -1 -16.9000 60.6850 TC 25 8 224
1925344S14065 1926 61 SI MM NOT_NAMED 1925-12-11 12:00:00 TS -17.2000 60.4000 main 431 392 _________O____ -1 -17.2000 60.4000 TC 25 8 219
1925344S14065 1926 61 SI MM NOT_NAMED 1925-12-11 15:00:00 TS -17.4924 60.1774 main 392 353 _________P____ -1 -17.4924 60.1774 TC 25 7 212
1925344S14065 1926 61 SI MM NOT_NAMED 1925-12-11 18:00:00 TS -17.8000 60.0000 main 353 314 _________O____ -1 -17.8000 60.0000 TC 25 7 208
1925344S14065 1926 61 SI MM NOT_NAMED 1925-12-11 21:00:00 TS -18.1275 59.8275 main 314 275 _________P____ -1 -18.1275 59.8275 TC 25 8 202
1925344S14065 1926 61 SI MM NOT_NAMED 1925-12-12 00:00:00 TS -18.5000 59.7000 main 275 240 _________O____ -1 -18.5000 59.7000 TC 25 8 194
1925344S14065 1926 61 SI MM NOT_NAMED 1925-12-12 03:00:00 TS -18.9425 59.6126 main 240 213 _________P____ -1 -18.9425 59.6126 TC 25 9 186
1925344S14065 1926 61 SI MM NOT_NAMED 1925-12-12 06:00:00 TS -19.4000 59.6000 main 213 199 _________O____ -1 -19.4000 59.6000 TC 25 9 178
1925344S14065 1926 61 SI MM NOT_NAMED 1925-12-12 09:00:00 TS -19.8150 59.6625 main 206 199 _________P____ -1 -19.8150 59.6625 TC 25 8 167
1925344S14065 1926 61 SI MM NOT_NAMED 1925-12-12 12:00:00 TS -20.2000 59.8000 main 208 208 _________O____ -1 -20.2000 59.8000 TC 25 8 159
1925344S14065 1926 61 SI MM NOT_NAMED 1925-12-12 15:00:00 TS -20.5650 59.9775 main 231 231 _________P____ -1 -20.5650 59.9775 TC 25 8 152
1925344S14065 1926 61 SI MM NOT_NAMED 1925-12-12 18:00:00 TS -20.9000 60.2000 main 258 258 _________O____ -1 -20.9000 60.2000 TC 25 8 147
1925344S14065 1926 61 SI MM NOT_NAMED 1925-12-12 21:00:00 TS -21.2225 60.4425 main 288 288 _________P____ -1 -21.2225 60.4425 TC 25 8 142
1925344S14065 1926 61 SI MM NOT_NAMED 1925-12-13 00:00:00 TS -21.5000 60.7000 main 329 329 _________O____ -1 -21.5000 60.7000 TC 25 7 136
1925344S14065 1926 61 SI MM NOT_NAMED 1925-12-13 03:00:00 TS -21.7150 60.9501 main 367 367 _________P____ -1 -21.7150 60.9501 TC 25 6 131
1925344S14065 1926 61 SI MM NOT_NAMED 1925-12-13 06:00:00 TS -21.9000 61.2000 main 395 395 _________O____ -1 -21.9000 61.2000 TC 25 6 129
1925344S14065 1926 61 SI MM NOT_NAMED 1925-12-13 09:00:00 TS -22.1000 61.4575 main 432 432 _________P____ -1 -22.1000 61.4575 TC 25 6 131
1925344S14065 1926 61 SI MM NOT_NAMED 1925-12-13 12:00:00 TS -22.3000 61.7000 main 460 460 _________O____ -1 -22.3000 61.7000 TC 25 6 135
1925344S14065 1926 61 SI MM NOT_NAMED 1925-12-13 15:00:00 TS -22.5074 61.9001 main 488 488 _________P____ -1 -22.5074 61.9001 TC 25 5 137
1925344S14065 1926 61 SI MM NOT_NAMED 1925-12-13 18:00:00 TS -22.7000 62.1000 main 516 516 _________O____ -1 -22.7000 62.1000 TC 25 5 130
1925344S14065 1926 61 SI MM NOT_NAMED 1925-12-13 21:00:00 TS -22.8500 62.3351 main 540 540 _________P____ -1 -22.8500 62.3351 TC 25 6 123
1925344S14065 1926 61 SI MM NOT_NAMED 1925-12-14 00:00:00 TS -23.0000 62.6000 main 577 577 _________O____ -1 -23.0000 62.6000 TC 25 6 125
1925344S14065 1926 61 SI MM NOT_NAMED 1925-12-14 03:00:00 TS -23.1999 62.8850 main 615 615 _________P____ -1 -23.1999 62.8850 TC 25 7 126
1925344S14065 1926 61 SI MM NOT_NAMED 1925-12-14 06:00:00 TS -23.4000 63.2000 main 653 653 _________O____ -1 -23.4000 63.2000 TC 25 7 120
1925344S14065 1926 61 SI MM NOT_NAMED 1925-12-14 09:00:00 TS -23.5575 63.5501 main 699 699 _________P____ -1 -23.5575 63.5501 TC 25 7 115
1925344S14065 1926 61 SI MM NOT_NAMED 1925-12-14 12:00:00 TS -23.7000 63.9000 main 731 731 _________O____ -1 -23.7000 63.9000 TC 25 7 116
1925344S14065 1926 61 SI MM NOT_NAMED 1925-12-14 15:00:00 TS -23.8499 64.2076 main 764 764 _________P____ -1 -23.8499 64.2076 TC 25 6 119
1925344S14065 1926 61 SI MM NOT_NAMED 1925-12-14 18:00:00 TS -24.0000 64.5000 main 801 801 _________O____ -1 -24.0000 64.5000 TC 25 6 119
1925344S14065 1926 61 SI MM NOT_NAMED 1925-12-14 21:00:00 TS -24.1501 64.7973 main 838 838 _________P____ -1 -24.1501 64.7973 TC 25 6 119
1925344S14065 1926 61 SI MM NOT_NAMED 1925-12-15 00:00:00 TS -24.3000 65.1000 main 870 _________O____ -1 -24.3000 65.1000 TC 25 6 119

IBTrACS Databaseについて

本データベースは、米国NOAAが公開する1842年以降の世界の熱帯低気圧のベストトラックデータアーカイブInternational Best Track Archive for Climate Stewardship (IBTrACS)を、ウェブで閲覧しやすい形式に変換したものです。

最終更新日:2021-11-26